Aviation Digital Data Service (ADDS)

Output produced by METARs form (0112 UTC 25 March 2019)
found at http://www.aviationweather.gov/metar/data/
 
METAR text: LFSL 250100Z AUTO 35005KT 7000 NSC 06/03 Q1024
Conditions at: LFSL (BRIVE/SOUILLAC , FR) observed 0100 UTC 25 March 2019
Temperature: 6.0°C (43°F)
Dewpoint: 3.0°C (37°F) [RH = 81%]
Pressure (altimeter): 30.24 inches Hg (1024.0 mb)
Winds: from the N (350 degrees) at 6 MPH (5 knots; 2.6 m/s)
Visibility: 4 miles ( 7 km)
Ceiling: at least 12,000 feet AGL
Clouds: sky clear below 12,000 feet AGL
Weather: no significant weather observed at this time

Forecast for: LFSL (BRIVE/SOUILLAC , FR)
Text: TAF LFSL 241700Z 2418/2503 35008KT CAVOK
Forecast period: 1800 UTC 24 March 2019 to 0300 UTC 25 March 2019
Forecast type: FROM: standard forecast or significant change
Winds: from the N (350 degrees) at 9 MPH (8 knots; 4.1 m/s)
Visibility: 6 or more miles 10+ km)
Ceiling: unknown
Clouds: missing
Weather: NSW  (no significant weather)